Time,TemperatureF,DewpointF,PressureIn,WindDirection,WindDirectionDegrees,WindSpeedMPH,WindSpeedGustMPH,Humidity,HourlyPrecipIn,Conditions,Clouds,dailyrainin,SoftwareType,DateUTC
2013-04-15 00:00:00,39.2,11.0,29.83,ESE,112,5.8,5.8,31,0.00,CLR,,0.00,WeatherDisplay:10.37,2013-04-15 04:00:00,
2013-04-15 00:01:00,39.2,11.0,29.83,ESE,112,5.8,5.8,31,0.00,CLR,,0.00,WeatherDisplay:10.37,2013-04-15 04:01:00,
2013-04-15 00:06:00,39.2,11.0,29.83,East,90,5.8,5.8,31,0.00,CLR,,0.00,WeatherDisplay:10.37,2013-04-15 04:06:00,
2013-04-15 00:11:00,39.2,11.0,29.81,ESE,112,5.8,5.8,31,0.00,CLR,,0.00,WeatherDisplay:10.37,2013-04-15 04:11:00,
2013-04-15 00:16:00,39.2,11.0,29.81,ESE,112,5.8,5.8,31,0.00,CLR,,0.00,WeatherDisplay:10.37,2013-04-15 04:16:00,
2013-04-15 00:21:00,39.2,11.0,29.78,ENE,67,5.8,5.8,31,0.00,CLR,,0.00,WeatherDisplay:10.37,2013-04-15 04:21:00,
2013-04-15 00:27:00,39.4,11.2,29.78,ESE,112,5.9,5.9,31,0.00,CLR,,0.00,WeatherDisplay:10.37,2013-04-15 04:27:00,
2013-04-15 00:32:00,39.6,11.4,29.78,SSE,157,5.9,5.9,31,0.00,CLR,,0.00,WeatherDisplay:10.37,2013-04-15 04:32:00,
2013-04-15 00:37:00,39.6,11.4,29.77,ESE,112,5.9,5.9,31,0.00,CLR,,0.00,WeatherDisplay:10.37,2013-04-15 04:37:00,
2013-04-15 00:42:00,39.6,11.4,29.78,ESE,112,5.9,5.9,31,0.00,CLR,,0.00,WeatherDisplay:10.37,2013-04-15 04:42:00,
2013-04-15 00:47:00,39.7,11.5,29.78,East,90,5.9,5.9,31,0.00,CLR,,0.00,WeatherDisplay:10.37,2013-04-15 04:47:00,
2013-04-15 00:53:00,39.9,11.7,29.78,SSE,157,5.9,5.9,31,0.00,CLR,,0.00,WeatherDisplay:10.37,2013-04-15 04:53:00,
2013-04-15 00:58:00,39.9,11.7,29.80,SE,135,5.9,5.9,31,0.00,CLR,,0.00,WeatherDisplay:10.37,2013-04-15 04:58:00,
2013-04-15 01:03:00,39.9,11.7,29.80,SE,135,5.9,5.9,31,0.00,CLR,,0.00,WeatherDisplay:10.37,2013-04-15 05:03:00,
2013-04-15 01:08:00,40.1,11.8,29.80,SSE,157,4.9,4.9,31,0.00,CLR,,0.00,WeatherDisplay:10.37,2013-04-15 05:08:00,
2013-04-15 01:13:00,40.1,11.8,29.80,ESE,112,5.1,5.1,31,0.00,CLR,,0.00,WeatherDisplay:10.37,2013-04-15 05:13:00,
2013-04-15 01:18:00,40.1,11.8,29.81,ESE,112,5.1,5.1,31,0.00,CLR,,0.00,WeatherDisplay:10.37,2013-04-15 05:18:00,
2013-04-15 01:23:00,40.1,11.8,29.81,SSE,157,5.9,5.9,31,0.00,CLR,,0.00,WeatherDisplay:10.37,2013-04-15 05:23:00,
2013-04-15 01:28:00,40.1,11.8,29.81,East,90,6.9,6.9,31,0.00,CLR,,0.00,WeatherDisplay:10.37,2013-04-15 05:28:00,
2013-04-15 01:33:00,40.1,11.8,29.80,SSE,157,6.9,6.9,31,0.00,CLR,,0.00,WeatherDisplay:10.37,2013-04-15 05:33:00,
2013-04-15 01:38:00,40.1,11.8,29.78,SSE,157,6.9,6.9,31,0.00,CLR,,0.00,WeatherDisplay:10.37,2013-04-15 05:38:00,
2013-04-15 01:43:00,40.1,11.8,29.77,SSW,202,6.9,6.9,31,0.00,CLR,,0.00,WeatherDisplay:10.37,2013-04-15 05:43:00,
2013-04-15 01:48:00,40.3,12.0,29.77,ESE,112,6.9,6.9,31,0.00,CLR,,0.00,WeatherDisplay:10.37,2013-04-15 05:48:00,
2013-04-15 01:53:00,40.3,12.0,29.77,ENE,67,6.9,6.9,31,0.00,CLR,,0.00,WeatherDisplay:10.37,2013-04-15 05:53:00,
2013-04-15 01:58:00,40.5,12.2,29.77,South,180,6.9,6.9,31,0.00,CLR,,0.00,WeatherDisplay:10.37,2013-04-15 05:58:00,
2013-04-15 02:03:00,40.5,12.2,29.78,SSE,157,6.9,6.9,31,0.00,CLR,,0.00,WeatherDisplay:10.37,2013-04-15 06:03:00,
2013-04-15 02:08:00,40.6,12.3,29.78,East,90,6.9,6.9,31,0.00,CLR,,0.00,WeatherDisplay:10.37,2013-04-15 06:08:00,
2013-04-15 02:13:00,40.5,12.2,29.78,NE,45,6.1,6.1,31,0.00,CLR,,0.00,WeatherDisplay:10.37,2013-04-15 06:13:00,
2013-04-15 02:18:00,40.8,12.5,29.78,South,180,6.9,6.9,31,0.00,CLR,,0.00,WeatherDisplay:10.37,2013-04-15 06:18:00,
2013-04-15 02:23:00,40.8,11.7,29.78,South,180,6.9,6.9,30,0.00,CLR,,0.00,WeatherDisplay:10.37,2013-04-15 06:23:00,
2013-04-15 02:29:00,40.8,12.5,29.80,South,180,6.9,6.9,31,0.00,CLR,,0.00,WeatherDisplay:10.37,2013-04-15 06:29:00,
2013-04-15 02:34:00,40.8,12.5,29.80,ESE,112,6.9,6.9,31,0.00,CLR,,0.00,WeatherDisplay:10.37,2013-04-15 06:34:00,
2013-04-15 02:39:00,40.8,11.7,29.78,East,90,6.9,6.9,30,0.00,CLR,,0.00,WeatherDisplay:10.37,2013-04-15 06:39:00,
2013-04-15 02:44:00,40.6,12.3,29.78,SE,135,6.9,6.9,31,0.00,CLR,,0.00,WeatherDisplay:10.37,2013-04-15 06:44:00,
2013-04-15 02:49:00,40.6,12.3,29.78,SE,135,6.9,6.9,31,0.00,CLR,,0.00,WeatherDisplay:10.37,2013-04-15 06:49:00,
2013-04-15 02:54:00,40.6,11.6,29.77,SSW,202,6.9,6.9,30,0.00,CLR,,0.00,WeatherDisplay:10.37,2013-04-15 06:54:00,
2013-04-15 02:59:00,40.6,11.6,29.75,East,90,6.9,6.9,30,0.00,CLR,,0.00,WeatherDisplay:10.37,2013-04-15 06:59:00,
2013-04-15 03:04:00,40.6,11.6,29.75,SE,135,6.9,6.9,30,0.00,CLR,,0.00,WeatherDisplay:10.37,2013-04-15 07:04:00,
2013-04-15 03:41:00,41.2,12.0,29.77,SE,135,8.1,8.1,30,0.00,CLR,,0.00,WeatherDisplay:10.37,2013-04-15 07:41:00,
2013-04-15 03:44:00,41.2,12.0,29.77,East,90,8.1,8.1,30,0.00,CLR,,0.00,WeatherDisplay:10.37,2013-04-15 07:44:00,
2013-04-15 03:48:00,41.2,12.0,29.78,SE,135,8.1,8.1,30,0.00,CLR,,0.00,WeatherDisplay:10.37,2013-04-15 07:48:00,
2013-04-15 03:49:00,41.2,12.0,29.78,SE,135,8.1,8.1,30,0.00,CLR,,0.00,WeatherDisplay:10.37,2013-04-15 07:49:00,
2013-04-15 03:50:00,41.2,12.0,29.78,SE,135,8.1,8.1,30,0.00,CLR,,0.00,WeatherDisplay:10.37,2013-04-15 07:50:00,
2013-04-15 03:55:00,41.2,12.0,29.78,East,90,8.1,8.1,30,0.00,CLR,,0.00,WeatherDisplay:10.37,2013-04-15 07:55:00,
2013-04-15 04:00:00,41.2,12.0,29.78,East,90,8.1,8.1,30,0.00,CLR,,0.00,WeatherDisplay:10.37,2013-04-15 08:00:00,
2013-04-15 04:05:00,41.2,12.0,29.80,SE,135,8.1,8.1,30,0.00,CLR,,0.00,WeatherDisplay:10.37,2013-04-15 08:05:00,
2013-04-15 04:10:00,41.2,12.0,29.78,ESE,112,2.6,2.6,30,0.00,CLR,,0.00,WeatherDisplay:10.37,2013-04-15 08:10:00,
2013-04-15 04:15:00,41.2,12.0,29.78,South,180,3.8,3.8,30,0.00,CLR,,0.00,WeatherDisplay:10.37,2013-04-15 08:15:00,
2013-04-15 04:20:00,41.4,12.2,29.78,East,90,4.0,4.0,30,0.00,CLR,,0.00,WeatherDisplay:10.37,2013-04-15 08:20:00,
2013-04-15 04:25:00,41.4,12.2,29.77,East,90,4.0,4.0,30,0.00,CLR,,0.00,WeatherDisplay:10.37,2013-04-15 08:25:00,
2013-04-15 04:30:00,41.4,12.2,29.77,SE,135,4.5,4.5,30,0.00,CLR,,0.00,WeatherDisplay:10.37,2013-04-15 08:30:00,
2013-04-15 04:36:00,41.5,11.6,29.77,WNW,292,4.7,4.7,29,0.00,CLR,,0.00,WeatherDisplay:10.37,2013-04-15 08:36:00,
2013-04-15 04:37:00,41.7,12.5,29.77,WNW,292,4.7,4.7,30,0.00,CLR,,0.00,WeatherDisplay:10.37,2013-04-15 08:37:00,
2013-04-15 04:40:00,41.7,11.7,29.77,SSE,157,4.7,4.7,29,0.00,CLR,,0.00,WeatherDisplay:10.37,2013-04-15 08:40:00,
2013-04-15 04:41:00,41.7,12.5,29.78,SSE,157,4.7,4.7,30,0.00,CLR,,0.00,WeatherDisplay:10.37,2013-04-15 08:41:00,
2013-04-15 04:42:00,41.7,12.5,29.78,SSE,157,4.7,4.7,30,0.00,CLR,,0.00,WeatherDisplay:10.37,2013-04-15 08:42:00,
2013-04-15 04:47:00,41.5,11.6,29.78,SSW,202,4.7,4.7,29,0.00,CLR,,0.00,WeatherDisplay:10.37,2013-04-15 08:47:00,
2013-04-15 04:51:00,41.5,11.6,29.80,SSW,202,4.7,4.7,29,0.00,CLR,,0.00,WeatherDisplay:10.37,2013-04-15 08:51:00,
2013-04-15 04:56:00,41.7,12.5,29.81,SSW,202,4.7,4.7,30,0.00,CLR,,0.00,WeatherDisplay:10.37,2013-04-15 08:56:00,
2013-04-15 05:01:00,41.9,11.9,29.81,SSE,157,4.7,4.7,29,0.00,CLR,,0.00,WeatherDisplay:10.37,2013-04-15 09:01:00,
2013-04-15 05:06:00,41.7,12.5,29.83,ENE,67,4.6,4.6,30,0.00,CLR,,0.00,WeatherDisplay:10.37,2013-04-15 09:06:00,
2013-04-15 05:11:00,41.9,11.9,29.81,SE,135,4.0,4.0,29,0.00,CLR,,0.00,WeatherDisplay:10.37,2013-04-15 09:11:00,
2013-04-15 05:17:00,41.9,12.7,29.83,SE,135,4.0,4.0,30,0.00,CLR,,0.00,WeatherDisplay:10.37,2013-04-15 09:17:00,
2013-04-15 05:22:00,41.9,11.9,29.83,SE,135,4.0,4.0,29,0.00,CLR,,0.00,WeatherDisplay:10.37,2013-04-15 09:22:00,
2013-04-15 05:27:00,41.7,12.5,29.83,SE,135,4.0,4.0,30,0.00,CLR,,0.00,WeatherDisplay:10.37,2013-04-15 09:27:00,
2013-04-15 05:33:00,41.7,12.5,29.83,South,180,4.0,4.0,30,0.00,CLR,,0.00,WeatherDisplay:10.37,2013-04-15 09:33:00,
2013-04-15 05:38:00,41.5,12.4,29.83,South,180,4.0,4.0,30,0.00,CLR,,0.00,WeatherDisplay:10.37,2013-04-15 09:38:00,
2013-04-15 05:43:00,41.5,11.6,29.81,SW,225,4.0,4.0,29,0.00,CLR,,0.00,WeatherDisplay:10.37,2013-04-15 09:43:00,
2013-04-15 05:48:00,41.4,11.4,29.81,SE,135,4.0,4.0,29,0.00,CLR,,0.00,WeatherDisplay:10.37,2013-04-15 09:48:00,
2013-04-15 05:53:00,41.4,11.4,29.80,SSE,157,4.0,4.0,29,0.00,CLR,,0.00,WeatherDisplay:10.37,2013-04-15 09:53:00,
2013-04-15 05:58:00,41.4,11.4,29.80,SSE,157,4.0,0.0,29,0.00,CLR,,0.00,WeatherDisplay:10.37,2013-04-15 09:58:00,
2013-04-15 06:03:00,41.4,12.2,29.81,SSE,157,4.0,4.0,30,0.00,CLR,,0.00,WeatherDisplay:10.37,2013-04-15 10:03:00,
2013-04-15 06:08:00,41.4,12.2,29.81,SSE,157,3.5,3.5,30,0.00,CLR,,0.00,WeatherDisplay:10.37,2013-04-15 10:08:00,
2013-04-15 06:13:00,41.4,12.2,29.81,ESE,112,1.3,1.3,30,0.00,CLR,,0.00,WeatherDisplay:10.37,2013-04-15 10:13:00,
2013-04-15 06:19:00,41.4,12.2,29.81,South,180,1.3,1.3,30,0.00,CLR,,0.00,WeatherDisplay:10.37,2013-04-15 10:19:00,
2013-04-15 06:24:00,41.4,11.4,29.81,WSW,247,3.8,3.8,29,0.00,CLR,,0.00,WeatherDisplay:10.37,2013-04-15 10:24:00,
2013-04-15 06:29:00,41.4,12.2,29.81,SSE,157,3.8,3.8,30,0.00,CLR,,0.00,WeatherDisplay:10.37,2013-04-15 10:29:00,
2013-04-15 06:34:00,41.4,12.2,29.81,SE,135,3.8,3.8,30,0.00,CLR,,0.00,WeatherDisplay:10.37,2013-04-15 10:34:00,
2013-04-15 06:39:00,41.4,11.4,29.83,West,270,4.6,4.6,29,0.00,CLR,,0.00,WeatherDisplay:10.37,2013-04-15 10:39:00,
2013-04-15 06:44:00,41.2,12.0,29.83,ESE,112,4.6,4.6,30,0.00,CLR,,0.00,WeatherDisplay:10.37,2013-04-15 10:44:00,
2013-04-15 06:49:00,41.0,11.9,29.83,SSE,157,4.6,4.6,30,0.00,CLR,,0.00,WeatherDisplay:10.37,2013-04-15 10:49:00,
2013-04-15 06:54:00,40.8,11.0,29.81,East,90,4.6,4.6,29,0.00,CLR,,0.00,WeatherDisplay:10.37,2013-04-15 10:54:00,
2013-04-15 06:59:00,40.6,11.6,29.83,ESE,112,4.6,4.6,30,0.00,CLR,,0.00,WeatherDisplay:10.37,2013-04-15 10:59:00,
2013-04-15 07:04:00,40.6,11.6,29.81,ESE,112,4.7,4.7,30,0.00,CLR,,0.00,WeatherDisplay:10.37,2013-04-15 11:04:00,
2013-04-15 07:09:00,40.8,11.0,29.81,SSE,157,2.3,2.3,29,0.00,CLR,,0.00,WeatherDisplay:10.37,2013-04-15 11:09:00,
2013-04-15 07:14:00,40.8,11.7,29.80,SSE,157,3.8,3.8,30,0.00,CLR,,0.00,WeatherDisplay:10.37,2013-04-15 11:14:00,
2013-04-15 07:19:00,41.2,12.0,29.80,East,90,3.8,3.8,30,0.00,CLR,,0.00,WeatherDisplay:10.37,2013-04-15 11:19:00,
2013-04-15 07:24:00,41.4,12.2,29.80,NE,45,3.8,3.8,30,0.00,CLR,,0.00,WeatherDisplay:10.37,2013-04-15 11:24:00,
2013-04-15 07:29:00,41.5,12.4,29.81,ESE,112,3.8,3.8,30,0.00,CLR,,0.00,WeatherDisplay:10.37,2013-04-15 11:29:00,
2013-04-15 07:34:00,41.9,12.7,29.81,SSE,157,3.8,3.8,30,0.00,CLR,,0.00,WeatherDisplay:10.37,2013-04-15 11:34:00,
2013-04-15 07:39:00,42.3,13.0,29.81,East,90,5.8,5.8,30,0.00,CLR,,0.00,WeatherDisplay:10.37,2013-04-15 11:39:00,
2013-04-15 07:44:00,42.3,13.0,29.81,East,90,5.8,5.8,30,0.00,CLR,,0.00,WeatherDisplay:10.37,2013-04-15 11:44:00,
2013-04-15 07:49:00,42.3,13.0,29.83,ESE,112,5.8,5.8,30,0.00,CLR,,0.00,WeatherDisplay:10.37,2013-04-15 11:49:00,
2013-04-15 07:54:00,44.1,14.6,29.83,SSE,157,5.8,5.8,30,0.00,CLR,,0.00,WeatherDisplay:10.37,2013-04-15 11:54:00,
2013-04-15 07:59:00,44.2,13.9,29.83,SE,135,5.8,5.8,29,0.00,CLR,,0.00,WeatherDisplay:10.37,2013-04-15 11:59:00,
2013-04-15 08:04:00,44.6,15.0,29.83,East,90,5.8,5.8,30,0.00,CLR,,0.00,WeatherDisplay:10.37,2013-04-15 12:04:00,
2013-04-15 08:09:00,44.8,15.2,29.83,South,180,2.4,2.4,30,0.00,CLR,,0.00,WeatherDisplay:10.37,2013-04-15 12:09:00,
2013-04-15 08:14:00,45.1,14.7,29.83,South,180,4.6,4.6,29,0.00,CLR,,0.00,WeatherDisplay:10.37,2013-04-15 12:14:00,
2013-04-15 08:19:00,45.3,15.7,29.83,SE,135,4.6,4.6,30,0.00,CLR,,0.00,WeatherDisplay:10.37,2013-04-15 12:19:00,
2013-04-15 08:24:00,45.5,15.8,29.83,South,180,4.6,4.6,30,0.00,CLR,,0.00,WeatherDisplay:10.37,2013-04-15 12:24:00,
2013-04-15 08:29:00,45.9,15.3,29.81,SSE,157,4.6,4.6,29,0.00,CLR,,0.00,WeatherDisplay:10.37,2013-04-15 12:29:00,
2013-04-15 08:34:00,46.0,16.3,29.81,SW,225,4.6,4.6,30,0.00,CLR,,0.00,WeatherDisplay:10.37,2013-04-15 12:34:00,
2013-04-15 08:39:00,46.4,16.6,29.80,East,90,4.6,4.6,30,0.00,CLR,,0.00,WeatherDisplay:10.37,2013-04-15 12:39:00,
2013-04-15 08:44:00,46.6,16.8,29.80,East,90,4.6,4.6,30,0.00,CLR,,0.00,WeatherDisplay:10.37,2013-04-15 12:44:00,
2013-04-15 08:49:00,46.8,16.9,29.80,SE,135,4.6,4.6,30,0.00,CLR,,0.00,WeatherDisplay:10.37,2013-04-15 12:49:00,
2013-04-15 08:54:00,46.9,17.1,29.80,East,90,5.8,5.8,30,0.00,CLR,,0.00,WeatherDisplay:10.37,2013-04-15 12:54:00,
2013-04-15 08:59:00,47.3,17.4,29.80,East,90,5.8,5.8,30,0.00,CLR,,0.00,WeatherDisplay:10.37,2013-04-15 12:59:00,
2013-04-15 09:04:00,48.0,18.0,29.78,East,90,5.8,5.8,30,0.00,CLR,,0.00,WeatherDisplay:10.37,2013-04-15 13:04:00,
2013-04-15 09:09:00,48.0,18.0,29.80,East,90,4.7,4.7,30,0.00,CLR,,0.00,WeatherDisplay:10.37,2013-04-15 13:09:00,
2013-04-15 09:14:00,48.0,18.0,29.80,East,90,4.7,4.7,30,0.00,CLR,,0.00,WeatherDisplay:10.37,2013-04-15 13:14:00,
2013-04-15 09:19:00,52.3,21.8,29.80,East,90,5.8,5.8,30,0.00,CLR,,0.00,WeatherDisplay:10.37,2013-04-15 13:19:00,
2013-04-15 09:24:00,52.5,21.9,29.80,South,180,5.8,5.8,30,0.00,CLR,,0.00,WeatherDisplay:10.37,2013-04-15 13:24:00,
2013-04-15 09:29:00,52.5,22.7,29.80,South,180,5.8,5.8,31,0.00,CLR,,0.00,WeatherDisplay:10.37,2013-04-15 13:29:00,
2013-04-15 09:34:00,52.5,22.7,29.80,SSW,202,8.4,8.4,31,0.00,CLR,,0.00,WeatherDisplay:10.37,2013-04-15 13:34:00,
2013-04-15 09:39:00,52.2,21.6,29.81,SW,225,8.4,8.4,30,0.00,CLR,,0.00,WeatherDisplay:10.37,2013-04-15 13:39:00,
2013-04-15 09:44:00,52.3,22.6,29.81,SSE,157,8.4,8.4,31,0.00,CLR,,0.00,WeatherDisplay:10.37,2013-04-15 13:44:00,
2013-04-15 09:49:00,52.5,22.7,29.81,South,180,8.4,8.4,31,0.00,CLR,,0.00,WeatherDisplay:10.37,2013-04-15 13:49:00,
2013-04-15 09:54:00,52.7,22.9,29.81,South,180,8.4,8.4,31,0.00,CLR,,0.00,WeatherDisplay:10.37,2013-04-15 13:54:00,
2013-04-15 09:59:00,53.1,23.2,29.81,SSE,157,8.4,8.4,31,0.00,CLR,,0.00,WeatherDisplay:10.37,2013-04-15 13:59:00,
2013-04-15 10:04:00,53.4,23.5,29.81,SSE,157,8.4,8.4,31,0.00,CLR,,0.00,WeatherDisplay:10.37,2013-04-15 14:04:00,
2013-04-15 10:09:00,54.0,24.0,29.80,SW,225,6.1,6.1,31,0.00,CLR,,0.00,WeatherDisplay:10.37,2013-04-15 14:09:00,
2013-04-15 10:14:00,54.9,24.8,29.78,SW,225,6.9,6.9,31,0.00,CLR,,0.00,WeatherDisplay:10.37,2013-04-15 14:14:00,
2013-04-15 10:21:00,57.0,25.9,29.77,SSW,202,6.9,6.9,30,0.00,CLR,,0.00,WeatherDisplay:10.37,2013-04-15 14:21:00,
2013-04-15 10:27:00,57.0,25.9,29.75,SSW,202,6.9,6.9,30,0.00,CLR,,0.00,WeatherDisplay:10.37,2013-04-15 14:27:00,
2013-04-15 10:32:00,61.2,29.5,29.77,SSW,202,8.6,8.6,30,0.00,CLR,,0.00,WeatherDisplay:10.37,2013-04-15 14:32:00,
2013-04-15 10:37:00,61.0,29.3,29.75,SSE,157,9.2,9.2,30,0.00,CLR,,0.00,WeatherDisplay:10.37,2013-04-15 14:37:00,
2013-04-15 10:42:00,61.2,30.3,29.77,South,180,9.2,9.2,31,0.00,CLR,,0.00,WeatherDisplay:10.37,2013-04-15 14:42:00,
2013-04-15 10:47:00,61.0,30.1,29.77,SSW,202,9.2,9.2,31,0.00,CLR,,0.00,WeatherDisplay:10.37,2013-04-15 14:47:00,
2013-04-15 10:52:00,60.8,29.9,29.77,South,180,9.2,9.2,31,0.00,CLR,,0.00,WeatherDisplay:10.37,2013-04-15 14:52:00,
2013-04-15 10:57:00,59.9,29.2,29.77,SSW,202,9.2,9.2,31,0.00,CLR,,0.00,WeatherDisplay:10.37,2013-04-15 14:57:00,
2013-04-15 11:02:00,59.4,28.7,29.77,South,180,9.2,9.2,31,0.00,CLR,,0.00,WeatherDisplay:10.37,2013-04-15 15:02:00,
2013-04-15 11:08:00,58.5,27.9,29.77,West,270,9.2,9.2,31,0.00,CLR,,0.00,WeatherDisplay:10.37,2013-04-15 15:08:00,
2013-04-15 11:13:00,57.9,27.4,29.77,South,180,6.9,6.9,31,0.00,CLR,,0.00,WeatherDisplay:10.37,2013-04-15 15:13:00,
2013-04-15 11:18:00,57.4,27.0,29.75,South,180,6.9,6.9,31,0.00,CLR,,0.00,WeatherDisplay:10.37,2013-04-15 15:18:00,
2013-04-15 11:23:00,57.2,26.8,29.77,SW,225,7.1,7.1,31,0.00,CLR,,0.00,WeatherDisplay:10.37,2013-04-15 15:23:00,
2013-04-15 11:28:00,57.2,26.8,29.77,SW,225,7.1,7.1,31,0.00,CLR,,0.00,WeatherDisplay:10.37,2013-04-15 15:28:00,
2013-04-15 11:33:00,57.2,26.8,29.77,SW,225,7.1,7.1,31,0.00,CLR,,0.00,WeatherDisplay:10.37,2013-04-15 15:33:00,
2013-04-15 11:39:00,60.8,29.9,29.77,South,180,7.1,7.1,31,0.00,CLR,,0.00,WeatherDisplay:10.37,2013-04-15 15:39:00,
2013-04-15 11:44:00,62.1,31.0,29.77,South,180,9.2,9.2,31,0.00,CLR,,0.00,WeatherDisplay:10.37,2013-04-15 15:44:00,
2013-04-15 11:49:00,62.2,31.2,29.77,SW,225,9.2,9.2,31,0.00,CLR,,0.00,WeatherDisplay:10.37,2013-04-15 15:49:00,
2013-04-15 11:54:00,63.0,31.8,29.77,SW,225,9.5,9.5,31,0.00,CLR,,0.00,WeatherDisplay:10.37,2013-04-15 15:54:00,
2013-04-15 11:59:00,63.3,32.1,29.77,SE,135,9.5,9.5,31,0.00,CLR,,0.00,WeatherDisplay:10.37,2013-04-15 15:59:00,
2013-04-15 12:04:00,63.9,32.6,29.77,SSE,157,9.5,9.5,31,0.00,CLR,,0.00,WeatherDisplay:10.37,2013-04-15 16:04:00,
2013-04-15 12:09:00,64.0,32.8,29.77,ESE,112,9.7,9.7,31,0.00,CLR,,0.00,WeatherDisplay:10.37,2013-04-15 16:09:00,
2013-04-15 12:14:00,63.5,32.3,29.77,SSW,202,9.7,9.7,31,0.00,CLR,,0.00,WeatherDisplay:10.37,2013-04-15 16:14:00,
2013-04-15 12:19:00,63.3,32.1,29.77,SSW,194,7.0,10.0,31,0.00,CLR,CLR,0.00,WeatherDisplay:10.37,2013-04-15 16:19:00,
2013-04-15 12:24:00,63.3,32.1,29.77,SW,223,7.0,10.0,31,0.00,CLR,CLR,0.00,WeatherDisplay:10.37,2013-04-15 16:24:00,
2013-04-15 12:29:00,64.4,33.1,29.75,SSW,205,7.0,10.0,31,0.00,CLR,CLR,0.00,WeatherDisplay:10.37,2013-04-15 16:29:00,
2013-04-15 12:34:00,64.4,33.1,29.75,South,170,10.0,10.0,31,0.00,CLR,CLR,0.00,WeatherDisplay:10.37,2013-04-15 16:34:00,
2013-04-15 12:39:00,64.6,33.2,29.75,South,188,5.0,10.0,31,0.00,CLR,CLR,0.00,WeatherDisplay:10.37,2013-04-15 16:39:00,
2013-04-15 12:44:00,64.8,31.7,29.80,SW,219,8.0,10.0,29,0.00,CLR,CLR,0.00,WeatherDisplay:10.37,2013-04-15 16:44:00,
2013-04-15 12:49:00,64.9,31.9,29.78,SW,218,3.0,10.0,29,0.00,CLR,CLR,0.00,WeatherDisplay:10.37,2013-04-15 16:49:00,
2013-04-15 12:54:00,65.5,32.4,29.77,SSW,196,6.0,10.0,29,0.00,CLR,CLR,0.00,WeatherDisplay:10.37,2013-04-15 16:54:00,
2013-04-15 13:58:00,68.7,35.1,29.74,North,0,10.4,0.0,29,0.00,CLR,,0.00,WeatherDisplay:10.37,2013-04-15 17:58:00,
2013-04-15 13:59:00,68.7,35.1,29.74,North,0,10.4,0.0,29,0.00,CLR,,0.00,WeatherDisplay:10.37,2013-04-15 17:59:00,
2013-04-15 14:00:00,68.7,35.1,29.74,North,0,10.4,0.0,29,0.00,CLR,,0.00,WeatherDisplay:10.37,2013-04-15 18:00:00,
2013-04-15 14:01:00,68.7,35.1,29.75,North,0,10.4,0.0,29,0.00,CLR,,0.00,WeatherDisplay:10.37,2013-04-15 18:01:00,
2013-04-15 14:07:00,68.9,35.3,29.74,SSE,157,11.4,11.4,29,0.00,CLR,,0.00,WeatherDisplay:10.37,2013-04-15 18:07:00,
2013-04-15 14:12:00,68.7,35.2,29.74,SSW,202,11.5,11.5,29,0.00,CLR,,0.00,WeatherDisplay:10.37,2013-04-15 18:12:00,
2013-04-15 14:17:00,68.7,35.2,29.72,SSW,202,11.5,11.5,29,0.00,CLR,,0.00,WeatherDisplay:10.37,2013-04-15 18:17:00,
2013-04-15 14:22:00,68.7,35.2,29.72,SSE,157,11.5,11.5,29,0.00,CLR,,0.00,WeatherDisplay:10.37,2013-04-15 18:22:00,
2013-04-15 14:27:00,68.5,35.0,29.71,SSE,157,11.5,11.5,29,0.00,CLR,,0.00,WeatherDisplay:10.37,2013-04-15 18:27:00,
2013-04-15 14:29:00,68.4,34.8,29.72,SSW,202,11.5,11.5,29,0.00,CLR,,0.00,WeatherDisplay:10.37,2013-04-15 18:29:00,
2013-04-15 14:30:00,68.4,34.8,29.72,SSW,202,11.5,11.5,29,0.00,CLR,,0.00,WeatherDisplay:10.37,2013-04-15 18:30:00,
2013-04-15 14:31:00,68.4,34.8,29.72,SSW,202,11.5,11.5,29,0.00,CLR,,0.00,WeatherDisplay:10.37,2013-04-15 18:31:00,
2013-04-15 14:35:00,68.4,34.8,29.72,SSW,202,11.5,11.5,29,0.00,CLR,,0.00,WeatherDisplay:10.37,2013-04-15 18:35:00,
2013-04-15 14:40:00,68.5,35.0,29.72,SSW,202,11.5,11.5,29,0.00,CLR,,0.00,WeatherDisplay:10.37,2013-04-15 18:40:00,
2013-04-15 14:45:00,68.7,35.2,29.71,SSW,202,11.5,11.5,29,0.00,CLR,,0.00,WeatherDisplay:10.37,2013-04-15 18:45:00,
2013-04-15 14:50:00,69.1,35.5,29.71,SSW,202,11.5,11.5,29,0.00,CLR,,0.00,WeatherDisplay:10.37,2013-04-15 18:50:00,
2013-04-15 14:55:00,68.7,35.2,29.72,SW,225,11.5,11.5,29,0.00,CLR,,0.00,WeatherDisplay:10.37,2013-04-15 18:55:00,
2013-04-15 15:00:00,68.7,35.2,29.73,South,180,11.5,11.5,29,0.00,CLR,,0.00,WeatherDisplay:10.37,2013-04-15 19:00:00,
2013-04-15 15:05:00,68.4,34.8,29.73,SSW,202,11.5,11.5,29,0.00,CLR,,0.00,WeatherDisplay:10.37,2013-04-15 19:05:00,
2013-04-15 15:10:00,68.2,34.7,29.73,SSE,157,4.7,4.7,29,0.00,CLR,,0.00,WeatherDisplay:10.37,2013-04-15 19:10:00,
2013-04-15 15:15:00,67.8,34.4,29.74,North,0,6.5,6.5,29,0.00,CLR,,0.00,WeatherDisplay:10.37,2013-04-15 19:15:00,
2013-04-15 15:20:00,67.6,34.2,29.73,WSW,247,7.3,7.3,29,0.00,CLR,,0.00,WeatherDisplay:10.37,2013-04-15 19:20:00,
2013-04-15 15:25:00,67.5,34.1,29.73,WSW,247,7.3,7.3,29,0.00,CLR,,0.00,WeatherDisplay:10.37,2013-04-15 19:25:00,
2013-04-15 15:30:00,66.6,33.3,29.73,South,180,9.9,9.9,29,0.00,CLR,,0.00,WeatherDisplay:10.37,2013-04-15 19:30:00,
2013-04-15 15:35:00,66.2,33.0,29.73,SSW,202,10.4,10.4,29,0.00,CLR,,0.00,WeatherDisplay:10.37,2013-04-15 19:35:00,
2013-04-15 15:40:00,66.4,33.1,29.73,South,180,10.4,10.4,29,0.00,CLR,,0.00,WeatherDisplay:10.37,2013-04-15 19:40:00,
2013-04-15 15:45:00,66.6,33.3,29.72,WSW,247,10.4,10.4,29,0.00,CLR,,0.00,WeatherDisplay:10.37,2013-04-15 19:45:00,
2013-04-15 15:50:00,66.4,34.0,29.73,SSE,157,10.4,10.4,30,0.00,CLR,,0.00,WeatherDisplay:10.37,2013-04-15 19:50:00,
2013-04-15 15:55:00,66.6,33.3,29.72,South,180,10.4,10.4,29,0.00,CLR,,0.00,WeatherDisplay:10.37,2013-04-15 19:55:00,
2013-04-15 15:57:00,66.6,33.3,29.72,South,180,10.4,10.4,29,0.00,CLR,,0.00,WeatherDisplay:10.37,2013-04-15 19:57:00,
2013-04-15 15:58:00,66.6,33.3,29.72,South,180,10.4,10.4,29,0.00,CLR,,0.00,WeatherDisplay:10.37,2013-04-15 19:58:00,
2013-04-15 15:59:00,66.6,33.3,29.71,South,173,6.0,10.0,29,0.00,CLR,CLR,0.00,WeatherDisplay:10.37,2013-04-15 19:59:00,
2013-04-15 16:02:00,66.6,33.3,29.71,South,180,10.4,10.4,29,0.00,CLR,,0.00,WeatherDisplay:10.37,2013-04-15 20:02:00,
2013-04-15 16:03:00,66.6,33.3,29.71,South,180,10.4,10.4,29,0.00,CLR,,0.00,WeatherDisplay:10.37,2013-04-15 20:03:00,
2013-04-15 16:04:00,66.6,33.3,29.71,South,180,10.4,10.4,29,0.00,CLR,,0.00,WeatherDisplay:10.37,2013-04-15 20:04:00,
2013-04-15 16:05:00,66.6,33.3,29.70,South,180,10.4,10.4,29,0.00,CLR,,0.00,WeatherDisplay:10.37,2013-04-15 20:05:00,
2013-04-15 16:08:00,66.6,33.3,29.70,South,180,4.7,4.7,29,0.00,CLR,,0.00,WeatherDisplay:10.37,2013-04-15 20:08:00,
2013-04-15 16:13:00,66.6,34.1,29.71,South,180,9.2,9.2,30,0.00,CLR,,0.00,WeatherDisplay:10.37,2013-04-15 20:13:00,
2013-04-15 16:18:00,66.9,33.6,29.71,WSW,247,9.2,9.2,29,0.00,CLR,,0.00,WeatherDisplay:10.37,2013-04-15 20:18:00,
2013-04-15 16:23:00,67.1,33.8,29.71,SW,225,9.2,9.2,29,0.00,CLR,,0.00,WeatherDisplay:10.37,2013-04-15 20:23:00,
2013-04-15 16:28:00,66.9,33.6,29.72,SSW,202,9.2,9.2,29,0.00,CLR,,0.00,WeatherDisplay:10.37,2013-04-15 20:28:00,
2013-04-15 16:33:00,66.7,33.4,29.72,SSW,202,9.2,9.2,29,0.00,CLR,,0.00,WeatherDisplay:10.37,2013-04-15 20:33:00,
2013-04-15 16:38:00,66.6,33.3,29.72,South,180,9.2,9.2,29,0.00,CLR,,0.00,WeatherDisplay:10.37,2013-04-15 20:38:00,
2013-04-15 16:43:00,66.6,33.3,29.72,South,180,9.2,9.2,29,0.00,CLR,,0.00,WeatherDisplay:10.37,2013-04-15 20:43:00,
2013-04-15 16:48:00,66.6,33.3,29.73,SW,225,9.2,9.2,29,0.00,CLR,,0.00,WeatherDisplay:10.37,2013-04-15 20:48:00,
2013-04-15 16:53:00,66.6,33.3,29.72,SW,225,9.2,9.2,29,0.00,CLR,,0.00,WeatherDisplay:10.37,2013-04-15 20:53:00,
2013-04-15 16:58:00,66.6,33.3,29.72,SE,135,9.2,9.2,29,0.00,CLR,,0.00,WeatherDisplay:10.37,2013-04-15 20:58:00,
2013-04-15 17:03:00,66.6,33.3,29.72,SSE,157,9.2,9.2,29,0.00,CLR,,0.00,WeatherDisplay:10.37,2013-04-15 21:03:00,
2013-04-15 17:08:00,66.4,33.1,29.72,SW,225,9.2,9.2,29,0.00,CLR,,0.00,WeatherDisplay:10.37,2013-04-15 21:08:00,
2013-04-15 17:13:00,66.9,33.6,29.72,SSE,157,9.2,9.2,29,0.00,CLR,,0.00,WeatherDisplay:10.37,2013-04-15 21:13:00,
2013-04-15 17:18:00,66.9,33.6,29.72,West,270,9.2,9.2,29,0.00,CLR,,0.00,WeatherDisplay:10.37,2013-04-15 21:18:00,
2013-04-15 17:23:00,66.9,33.6,29.72,South,180,9.2,9.2,29,0.00,CLR,,0.00,WeatherDisplay:10.37,2013-04-15 21:23:00,
2013-04-15 17:28:00,66.9,33.6,29.72,SW,225,9.2,9.2,29,0.00,CLR,,0.00,WeatherDisplay:10.37,2013-04-15 21:28:00,
2013-04-15 17:33:00,66.9,34.5,29.71,SW,225,9.2,9.2,30,0.00,CLR,,0.00,WeatherDisplay:10.37,2013-04-15 21:33:00,
2013-04-15 17:38:00,67.5,34.9,29.72,SSW,202,9.2,9.2,30,0.00,CLR,,0.00,WeatherDisplay:10.37,2013-04-15 21:38:00,
2013-04-15 17:43:00,67.8,35.2,29.72,West,270,9.2,9.2,30,0.00,CLR,,0.00,WeatherDisplay:10.37,2013-04-15 21:43:00,
2013-04-15 17:48:00,67.5,35.7,29.71,SW,225,9.2,9.2,31,0.00,CLR,,0.00,WeatherDisplay:10.37,2013-04-15 21:48:00,
2013-04-15 17:53:00,67.5,35.7,29.71,SSE,157,9.2,9.2,31,0.00,CLR,,0.00,WeatherDisplay:10.37,2013-04-15 21:53:00,
2013-04-15 17:58:00,67.5,35.7,29.69,SW,225,9.2,9.2,31,0.00,CLR,,0.00,WeatherDisplay:10.37,2013-04-15 21:58:00,
2013-04-15 18:03:00,67.5,35.7,29.69,SE,135,9.2,9.2,31,0.00,CLR,,0.00,WeatherDisplay:10.37,2013-04-15 22:03:00,
2013-04-15 18:08:00,67.3,35.6,29.68,South,180,9.2,9.2,31,0.00,CLR,,0.00,WeatherDisplay:10.37,2013-04-15 22:08:00,
2013-04-15 18:13:00,67.3,35.6,29.69,SSE,157,5.9,5.9,31,0.00,CLR,,0.00,WeatherDisplay:10.37,2013-04-15 22:13:00,
2013-04-15 18:18:00,67.3,36.4,29.68,SSE,157,5.9,5.9,32,0.00,CLR,,0.00,WeatherDisplay:10.37,2013-04-15 22:18:00,
2013-04-15 18:23:00,67.1,36.2,29.68,SW,225,5.9,5.9,32,0.00,CLR,,0.00,WeatherDisplay:10.37,2013-04-15 22:23:00,
2013-04-15 18:28:00,66.7,35.9,29.69,SSW,202,9.2,9.2,32,0.00,CLR,,0.00,WeatherDisplay:10.37,2013-04-15 22:28:00,
2013-04-15 18:33:00,66.6,35.8,29.69,WSW,247,9.2,9.2,32,0.00,CLR,,0.00,WeatherDisplay:10.37,2013-04-15 22:33:00,
2013-04-15 18:38:00,66.2,35.4,29.69,SW,225,9.2,9.2,32,0.00,CLR,,0.00,WeatherDisplay:10.37,2013-04-15 22:38:00,
2013-04-15 18:43:00,66.2,35.4,29.70,SW,225,9.2,9.2,32,0.00,CLR,,0.00,WeatherDisplay:10.37,2013-04-15 22:43:00,
2013-04-15 18:48:00,65.8,35.1,29.70,SSW,202,9.2,9.2,32,0.00,CLR,,0.00,WeatherDisplay:10.37,2013-04-15 22:48:00,
2013-04-15 18:53:00,65.7,35.0,29.70,WSW,247,9.7,9.7,32,0.00,CLR,,0.00,WeatherDisplay:10.37,2013-04-15 22:53:00,
2013-04-15 18:58:00,65.7,35.0,29.76,South,180,10.7,10.7,32,0.00,CLR,,0.00,WeatherDisplay:10.37,2013-04-15 22:58:00,
2013-04-15 19:03:00,65.3,34.7,29.71,SW,225,10.7,10.7,32,0.00,CLR,,0.00,WeatherDisplay:10.37,2013-04-15 23:03:00,
2013-04-15 19:08:00,65.1,34.5,29.71,SW,225,5.9,5.9,32,0.00,CLR,,0.00,WeatherDisplay:10.37,2013-04-15 23:08:00,
2013-04-15 19:13:00,65.1,35.3,29.71,SW,225,5.9,5.9,33,0.00,CLR,,0.00,WeatherDisplay:10.37,2013-04-15 23:13:00,
2013-04-15 19:18:00,65.1,35.3,29.70,SSW,202,5.9,5.9,33,0.00,CLR,,0.00,WeatherDisplay:10.37,2013-04-15 23:18:00,
2013-04-15 19:23:00,64.6,34.8,29.71,SW,225,6.9,6.9,33,0.00,CLR,,0.00,WeatherDisplay:10.37,2013-04-15 23:23:00,
2013-04-15 19:28:00,64.2,35.2,29.71,SW,225,6.9,6.9,34,0.00,CLR,,0.00,WeatherDisplay:10.37,2013-04-15 23:28:00,
2013-04-15 19:33:00,64.0,35.1,29.71,SSW,202,6.9,6.9,34,0.00,CLR,,0.00,WeatherDisplay:10.37,2013-04-15 23:33:00,
2013-04-15 19:38:00,63.9,35.7,29.71,SSE,157,6.9,6.9,35,0.00,CLR,,0.00,WeatherDisplay:10.37,2013-04-15 23:38:00,
2013-04-15 19:43:00,63.9,35.7,29.77,SW,225,6.9,6.9,35,0.00,CLR,,0.00,WeatherDisplay:10.37,2013-04-15 23:43:00,
2013-04-15 19:48:00,63.7,35.5,29.78,NNE,22,6.9,6.9,35,0.00,CLR,,0.00,WeatherDisplay:10.37,2013-04-15 23:48:00,
2013-04-15 19:53:00,63.5,36.0,29.71,SW,225,6.9,6.9,36,0.00,CLR,,0.00,WeatherDisplay:10.37,2013-04-15 23:53:00,
2013-04-15 19:58:00,63.5,36.0,29.77,SW,225,6.9,6.9,36,0.00,CLR,,0.00,WeatherDisplay:10.37,2013-04-15 23:58:00,
2013-04-15 20:03:00,63.5,36.0,29.71,SW,225,6.9,6.9,36,0.00,CLR,,0.00,WeatherDisplay:10.37,2013-04-16 00:03:00,
2013-04-15 20:08:00,63.1,35.7,29.72,WSW,247,6.9,6.9,36,0.00,CLR,,0.00,WeatherDisplay:10.37,2013-04-16 00:08:00,
2013-04-15 20:13:00,63.0,36.3,29.72,SW,225,5.8,5.8,37,0.00,CLR,,0.00,WeatherDisplay:10.37,2013-04-16 00:13:00,
2013-04-15 20:18:00,62.8,36.1,29.72,SW,225,5.8,5.8,37,0.00,CLR,,0.00,WeatherDisplay:10.37,2013-04-16 00:18:00,
2013-04-15 20:23:00,62.4,35.8,29.72,SW,225,5.8,5.8,37,0.00,CLR,,0.00,WeatherDisplay:10.37,2013-04-16 00:23:00,
2013-04-15 20:28:00,62.2,35.6,29.72,SSW,202,5.8,5.8,37,0.00,CLR,,0.00,WeatherDisplay:10.37,2013-04-16 00:28:00,
2013-04-15 20:33:00,62.2,35.6,29.73,WSW,247,5.8,5.8,37,0.00,CLR,,0.00,WeatherDisplay:10.37,2013-04-16 00:33:00,
2013-04-15 20:38:00,62.1,35.5,29.73,SSW,202,5.8,5.8,37,0.00,CLR,,0.00,WeatherDisplay:10.37,2013-04-16 00:38:00,
2013-04-15 20:43:00,61.9,35.3,29.73,SSW,202,5.8,5.8,37,0.00,CLR,,0.00,WeatherDisplay:10.37,2013-04-16 00:43:00,
2013-04-15 20:48:00,61.7,35.1,29.79,SSW,202,5.8,5.8,37,0.00,CLR,,0.00,WeatherDisplay:10.37,2013-04-16 00:48:00,
2013-04-15 20:53:00,61.7,34.5,29.79,SSW,202,5.8,5.8,36,0.00,CLR,,0.00,WeatherDisplay:10.37,2013-04-16 00:53:00,
2013-04-15 20:58:00,61.0,33.8,29.78,SSE,157,5.8,5.8,36,0.00,CLR,,0.00,WeatherDisplay:10.37,2013-04-16 00:58:00,
2013-04-15 21:03:00,60.6,33.5,29.78,South,180,5.8,5.8,36,0.00,CLR,,0.00,WeatherDisplay:10.37,2013-04-16 01:03:00,
2013-04-15 21:08:00,60.6,33.5,29.79,SSW,202,1.3,1.3,36,0.00,CLR,,0.00,WeatherDisplay:10.37,2013-04-16 01:08:00,
2013-04-15 21:13:00,60.3,33.2,29.79,South,180,3.5,3.5,36,0.00,CLR,,0.00,WeatherDisplay:10.37,2013-04-16 01:13:00,
2013-04-15 21:18:00,60.3,33.2,29.79,SW,225,4.0,4.0,36,0.00,CLR,,0.00,WeatherDisplay:10.37,2013-04-16 01:18:00,
2013-04-15 21:23:00,60.3,33.2,29.79,South,180,4.9,4.9,36,0.00,CLR,,0.00,WeatherDisplay:10.37,2013-04-16 01:23:00,
2013-04-15 21:28:00,60.3,33.2,29.79,South,180,4.9,4.9,36,0.00,CLR,,0.00,WeatherDisplay:10.37,2013-04-16 01:28:00,
2013-04-15 21:33:00,60.4,33.3,29.79,SW,225,4.9,4.9,36,0.00,CLR,,0.00,WeatherDisplay:10.37,2013-04-16 01:33:00,
2013-04-15 21:38:00,60.3,33.2,29.79,SW,225,4.9,4.9,36,0.00,CLR,,0.00,WeatherDisplay:10.37,2013-04-16 01:38:00,
2013-04-15 21:43:00,60.3,32.5,29.79,SW,225,4.9,4.9,35,0.00,CLR,,0.00,WeatherDisplay:10.37,2013-04-16 01:43:00,
2013-04-15 21:48:00,60.3,32.5,29.80,SW,225,4.9,4.9,35,0.00,CLR,,0.00,WeatherDisplay:10.37,2013-04-16 01:48:00,
2013-04-15 21:53:00,60.1,32.3,29.79,SW,225,4.9,4.9,35,0.00,CLR,,0.00,WeatherDisplay:10.37,2013-04-16 01:53:00,
2013-04-15 21:58:00,59.9,32.2,29.80,SW,225,4.9,4.9,35,0.00,CLR,,0.00,WeatherDisplay:10.37,2013-04-16 01:58:00,
2013-04-15 22:03:00,59.9,32.2,29.74,SSW,202,4.9,4.9,35,0.00,CLR,,0.00,WeatherDisplay:10.37,2013-04-16 02:03:00,
2013-04-15 22:08:00,59.9,32.2,29.75,SSE,157,2.6,2.6,35,0.00,CLR,,0.00,WeatherDisplay:10.37,2013-04-16 02:08:00,
2013-04-15 22:13:00,59.7,32.0,29.76,SSE,157,2.8,2.8,35,0.00,CLR,,0.00,WeatherDisplay:10.37,2013-04-16 02:13:00,
2013-04-15 22:18:00,59.5,31.8,29.76,SSW,202,3.5,3.5,35,0.00,CLR,,0.00,WeatherDisplay:10.37,2013-04-16 02:18:00,
2013-04-15 22:23:00,59.4,31.7,29.76,SW,225,3.5,3.5,35,0.00,CLR,,0.00,WeatherDisplay:10.37,2013-04-16 02:23:00,
2013-04-15 22:28:00,59.2,31.5,29.77,South,180,5.9,5.9,35,0.00,CLR,,0.00,WeatherDisplay:10.37,2013-04-16 02:28:00,
2013-04-15 22:33:00,59.2,31.5,29.78,South,180,5.9,5.9,35,0.00,CLR,,0.00,WeatherDisplay:10.37,2013-04-16 02:33:00,
2013-04-15 22:38:00,59.2,31.5,29.77,South,180,5.9,5.9,35,0.00,CLR,,0.00,WeatherDisplay:10.37,2013-04-16 02:38:00,
2013-04-15 22:43:00,59.2,31.5,29.76,South,180,5.9,5.9,35,0.00,CLR,,0.00,WeatherDisplay:10.37,2013-04-16 02:43:00,
2013-04-15 22:48:00,59.2,31.5,29.76,South,180,5.9,5.9,35,0.00,CLR,,0.00,WeatherDisplay:10.37,2013-04-16 02:48:00,
2013-04-15 22:53:00,58.6,31.0,29.76,SSW,202,5.9,5.9,35,0.00,CLR,,0.00,WeatherDisplay:10.37,2013-04-16 02:53:00,
2013-04-15 22:58:00,58.5,30.9,29.77,SSW,202,5.9,5.9,35,0.00,CLR,,0.00,WeatherDisplay:10.37,2013-04-16 02:58:00,
2013-04-15 23:03:00,58.3,30.7,29.77,South,180,5.9,5.9,35,0.00,CLR,,0.00,WeatherDisplay:10.37,2013-04-16 03:03:00,
2013-04-15 23:08:00,58.3,30.7,29.77,SSW,202,3.6,3.6,35,0.00,CLR,,0.00,WeatherDisplay:10.37,2013-04-16 03:08:00,
2013-04-15 23:13:00,58.1,30.6,29.76,South,180,3.6,3.6,35,0.00,CLR,,0.00,WeatherDisplay:10.37,2013-04-16 03:13:00,
2013-04-15 23:18:00,58.1,30.6,29.77,SSE,157,3.6,3.6,35,0.00,CLR,,0.00,WeatherDisplay:10.37,2013-04-16 03:18:00,
2013-04-15 23:23:00,58.1,30.6,29.77,South,180,5.8,5.8,35,0.00,CLR,,0.00,WeatherDisplay:10.37,2013-04-16 03:23:00,
2013-04-15 23:28:00,57.9,29.7,29.77,South,180,5.8,5.8,34,0.00,CLR,,0.00,WeatherDisplay:10.37,2013-04-16 03:28:00,
2013-04-15 23:33:00,57.9,29.7,29.76,South,180,5.8,5.8,34,0.00,CLR,,0.00,WeatherDisplay:10.37,2013-04-16 03:33:00,
2013-04-15 23:38:00,57.7,29.5,29.77,South,180,5.8,5.8,34,0.00,CLR,,0.00,WeatherDisplay:10.37,2013-04-16 03:38:00,
2013-04-15 23:43:00,57.7,29.5,29.76,ESE,112,5.8,5.8,34,0.00,CLR,,0.00,WeatherDisplay:10.37,2013-04-16 03:43:00,
2013-04-15 23:48:00,57.6,30.1,29.77,SE,135,5.8,5.8,35,0.00,CLR,,0.00,WeatherDisplay:10.37,2013-04-16 03:48:00,
2013-04-15 23:53:00,57.4,29.2,29.76,SE,135,5.8,5.8,34,0.00,CLR,,0.00,WeatherDisplay:10.37,2013-04-16 03:53:00,
2013-04-15 23:58:00,57.4,29.2,29.76,SE,135,5.8,5.8,34,0.00,CLR,,0.00,WeatherDisplay:10.37,2013-04-16 03:58:00,